createdAt,value
2023-04-21T00:00:10.377Z,73.80
2023-04-21T00:02:40.163Z,73.09
2023-04-21T00:05:13.930Z,72.24
2023-04-21T00:07:43.699Z,72.75
2023-04-21T00:10:12.129Z,73.76
2023-04-21T00:12:39.911Z,71.84
2023-04-21T00:15:08.182Z,71.08
2023-04-21T00:17:35.648Z,70.31
2023-04-21T00:20:03.179Z,70.40
2023-04-21T00:22:30.249Z,71.45
2023-04-21T00:24:57.316Z,72.03
2023-04-21T00:27:24.334Z,71.22
2023-04-21T00:29:53.634Z,71.59
2023-04-21T00:32:20.737Z,72.50
2023-04-21T00:34:47.787Z,73.34
2023-04-21T00:37:14.940Z,73.01
2023-04-21T00:39:42.087Z,73.66
2023-04-21T00:42:09.184Z,74.99
2023-04-21T00:44:36.364Z,74.23
2023-04-21T00:47:03.430Z,73.88
2023-04-21T00:49:30.740Z,74.21
2023-04-21T00:51:58.906Z,74.24
2023-04-21T00:54:26.908Z,73.91
2023-04-21T00:56:55.521Z,72.82
2023-04-21T00:59:22.625Z,71.80
2023-04-21T01:01:50.161Z,71.97
2023-04-21T01:04:17.255Z,71.53
2023-04-21T01:06:45.360Z,72.91
2023-04-21T01:09:14.197Z,71.81
2023-04-21T01:11:41.311Z,71.69
2023-04-21T01:14:08.589Z,73.05
2023-04-21T01:16:36.699Z,74.02
2023-04-21T01:19:05.706Z,73.89
2023-04-21T01:21:42.774Z,73.40
2023-04-21T01:24:10.065Z,74.02
2023-04-21T01:26:37.130Z,73.91
2023-04-21T01:29:04.237Z,73.92
2023-04-21T01:31:31.486Z,73.53
2023-04-21T01:34:02.937Z,72.91
2023-04-21T01:36:30.022Z,72.39
2023-04-21T01:38:57.163Z,73.00
2023-04-21T01:41:24.270Z,72.31
2023-04-21T01:43:51.400Z,72.57
2023-04-21T01:46:21.040Z,71.93
2023-04-21T01:48:48.160Z,72.32
2023-04-21T01:51:15.341Z,72.24
2023-04-21T01:53:42.432Z,72.90
2023-04-21T01:56:13.142Z,72.96
2023-04-21T01:58:40.246Z,72.55
2023-04-21T02:01:07.412Z,72.86
2023-04-21T02:03:34.906Z,73.26
2023-04-21T02:06:02.180Z,72.84
2023-04-21T02:08:29.409Z,71.87
2023-04-21T02:11:01.647Z,73.17
2023-04-21T02:13:28.703Z,73.24
2023-04-21T02:16:09.619Z,73.81
2023-04-21T02:18:40.146Z,72.96
2023-04-21T02:21:07.377Z,71.46
2023-04-21T02:23:34.462Z,72.56
2023-04-21T02:26:01.669Z,73.45
2023-04-21T02:28:28.916Z,72.44
2023-04-21T02:30:56.014Z,72.16
2023-04-21T02:33:23.240Z,71.60
2023-04-21T02:35:50.436Z,72.10
2023-04-21T02:38:17.549Z,71.43
2023-04-21T02:40:44.602Z,72.79
2023-04-21T02:43:13.376Z,71.39
2023-04-21T02:45:40.585Z,73.07
2023-04-21T02:48:07.776Z,74.46
2023-04-21T02:50:35.145Z,74.18
2023-04-21T02:53:02.272Z,75.33
2023-04-21T02:55:29.669Z,74.31
2023-04-21T02:57:56.770Z,74.26
2023-04-21T03:00:23.895Z,74.55
2023-04-21T03:02:52.270Z,74.40
2023-04-21T03:05:19.681Z,72.30
2023-04-21T03:07:46.716Z,72.12
2023-04-21T03:10:13.934Z,72.37
2023-04-21T03:12:40.992Z,73.20
2023-04-21T03:15:08.552Z,72.05
2023-04-21T03:17:35.767Z,72.45
2023-04-21T03:20:07.013Z,71.10
2023-04-21T03:22:38.191Z,71.61
2023-04-21T03:25:07.237Z,72.63
2023-04-21T03:27:35.214Z,70.75
2023-04-21T03:30:02.849Z,72.29
2023-04-21T03:32:30.016Z,71.42
2023-04-21T03:34:57.054Z,71.84
2023-04-21T03:37:24.121Z,72.48
2023-04-21T03:39:51.146Z,72.58
2023-04-21T03:42:18.223Z,72.07
2023-04-21T03:44:45.408Z,72.31
2023-04-21T03:47:12.586Z,71.98
2023-04-21T03:49:39.758Z,72.85
2023-04-21T03:52:06.805Z,72.52
2023-04-21T03:54:36.777Z,72.74
2023-04-21T03:57:04.080Z,72.81
2023-04-21T03:59:31.204Z,73.27
2023-04-21T04:01:58.259Z,72.76
2023-04-21T04:04:28.493Z,71.90
2023-04-21T04:06:55.893Z,71.37
2023-04-21T04:09:26.088Z,71.64
2023-04-21T04:11:53.180Z,72.28
2023-04-21T04:14:20.206Z,72.41
2023-04-21T04:16:47.296Z,72.27
2023-04-21T04:19:16.322Z,72.32
2023-04-21T04:21:43.412Z,71.85
2023-04-21T04:24:11.411Z,72.65
2023-04-21T04:26:38.685Z,72.76
2023-04-21T04:29:10.381Z,71.71
2023-04-21T04:31:37.826Z,71.91
2023-04-21T04:34:05.103Z,70.48
2023-04-21T04:36:33.483Z,70.36
2023-04-21T04:39:00.546Z,70.04
2023-04-21T04:41:30.618Z,69.98
2023-04-21T04:44:00.863Z,69.47
2023-04-21T04:46:28.461Z,69.32
2023-04-21T04:48:55.677Z,70.87
2023-04-21T04:51:23.656Z,69.95
2023-04-21T04:53:50.851Z,69.15
2023-04-21T04:56:17.946Z,70.45
2023-04-21T04:58:46.735Z,69.49
2023-04-21T05:01:18.081Z,71.48
2023-04-21T05:03:46.775Z,68.95
2023-04-21T05:06:14.407Z,69.57
2023-04-21T05:08:41.704Z,70.21
2023-04-21T05:11:09.170Z,69.54
2023-04-21T05:13:39.099Z,69.22
2023-04-21T05:16:09.908Z,70.36
2023-04-21T05:18:38.975Z,68.30
2023-04-21T05:21:06.324Z,68.17
2023-04-21T05:23:33.473Z,67.06
2023-04-21T05:26:04.770Z,67.15
2023-04-21T05:28:32.346Z,68.19
2023-04-21T05:30:59.966Z,67.82
2023-04-21T05:33:32.087Z,69.29
2023-04-21T05:36:02.361Z,66.60
2023-04-21T05:38:31.476Z,67.58
2023-04-21T05:40:59.126Z,68.31
2023-04-21T05:43:38.586Z,66.60
2023-04-21T05:46:11.967Z,66.58
2023-04-21T05:48:40.306Z,67.64
2023-04-21T05:51:17.836Z,65.92
2023-04-21T05:53:46.309Z,65.97
2023-04-21T05:56:16.600Z,66.77
2023-04-21T05:58:43.811Z,65.37
2023-04-21T06:01:11.284Z,65.33
2023-04-21T06:03:38.647Z,65.99
2023-04-21T06:06:07.207Z,66.76
2023-04-21T06:08:34.404Z,66.08
2023-04-21T06:11:04.323Z,64.64
2023-04-21T06:13:39.863Z,65.61
2023-04-21T06:16:09.122Z,64.28
2023-04-21T06:18:38.005Z,64.21
2023-04-21T06:21:07.744Z,64.12
2023-04-21T06:23:35.283Z,64.04
2023-04-21T06:26:09.547Z,60.90
2023-04-21T06:28:39.239Z,60.76
2023-04-21T06:31:09.938Z,59.58
2023-04-21T06:33:37.170Z,61.32
2023-04-21T06:36:05.440Z,61.58
2023-04-21T06:38:43.125Z,60.67
2023-04-21T06:41:10.715Z,60.32
2023-04-21T06:43:42.434Z,60.46
2023-04-21T06:46:18.241Z,57.98
2023-04-21T06:48:51.709Z,59.99
2023-04-21T06:51:18.783Z,58.50
2023-04-21T06:53:46.086Z,56.99
2023-04-21T06:56:13.258Z,58.21
2023-04-21T06:58:40.427Z,57.13
2023-04-21T07:01:10.938Z,57.57
2023-04-21T07:03:38.075Z,56.95
2023-04-21T07:06:05.996Z,56.72
2023-04-21T07:08:33.324Z,55.95
2023-04-21T07:11:00.390Z,55.22
2023-04-21T07:13:28.129Z,56.41
2023-04-21T07:15:55.660Z,56.97
2023-04-21T07:18:29.281Z,56.85
2023-04-21T07:20:56.358Z,56.33
2023-04-21T07:23:23.527Z,54.67
2023-04-21T07:25:58.777Z,55.10
2023-04-21T07:28:26.578Z,55.22
2023-04-21T07:31:02.324Z,55.58
2023-04-21T07:33:30.738Z,55.25
2023-04-21T07:35:58.227Z,54.68
2023-04-21T07:38:25.657Z,53.00
2023-04-21T07:40:53.270Z,54.41
2023-04-21T07:43:20.490Z,53.80
2023-04-21T07:46:01.375Z,53.99
2023-04-21T07:48:28.757Z,54.30
2023-04-21T07:50:56.189Z,53.00
2023-04-21T07:53:23.372Z,54.24
2023-04-21T07:55:57.328Z,52.58
2023-04-21T07:58:24.729Z,52.66
2023-04-21T08:00:56.619Z,52.60
2023-04-21T08:03:24.757Z,51.32
2023-04-21T08:05:52.381Z,52.17
2023-04-21T08:08:21.554Z,52.71
2023-04-21T08:10:49.082Z,51.43
2023-04-21T08:13:16.226Z,52.26
2023-04-21T08:15:44.702Z,51.92
2023-04-21T08:18:20.593Z,51.53
2023-04-21T08:20:49.558Z,51.64
2023-04-21T08:23:19.846Z,51.04
2023-04-21T08:25:47.051Z,51.60
2023-04-21T08:28:15.602Z,48.90
2023-04-21T08:30:43.317Z,50.45
2023-04-21T08:33:14.396Z,50.74
2023-04-21T08:35:55.036Z,50.50
2023-04-21T08:38:33.725Z,50.27
2023-04-21T08:41:01.189Z,49.77
2023-04-21T08:43:30.192Z,48.29
2023-04-21T08:46:21.663Z,47.42
2023-04-21T08:49:13.371Z,45.42
2023-04-21T08:52:00.484Z,48.48
2023-04-21T08:54:29.898Z,49.65
2023-04-21T08:57:07.956Z,48.97
2023-04-21T08:59:41.729Z,48.39
2023-04-21T09:02:17.463Z,48.94
2023-04-21T09:04:52.040Z,44.62
2023-04-21T09:07:39.416Z,48.24
2023-04-21T09:10:07.955Z,46.75
2023-04-21T09:12:38.531Z,49.57
2023-04-21T09:15:06.624Z,46.56
2023-04-21T09:17:34.099Z,47.72
2023-04-21T09:20:23.262Z,47.68
2023-04-21T09:22:54.434Z,47.49
2023-04-21T09:25:22.692Z,44.56
2023-04-21T09:27:49.908Z,46.76
2023-04-21T09:30:22.643Z,45.27
2023-04-21T09:32:50.255Z,42.86
2023-04-21T09:35:19.970Z,46.50
2023-04-21T09:37:47.278Z,46.79
2023-04-21T09:40:17.732Z,42.15
2023-04-21T09:42:46.023Z,44.31
2023-04-21T09:45:32.796Z,44.50
2023-04-21T09:48:09.545Z,44.78
2023-04-21T09:53:12.825Z,43.05
2023-04-21T09:55:41.787Z,41.71
2023-04-21T09:58:13.401Z,40.91
2023-04-21T10:00:41.063Z,44.86
2023-04-21T10:03:12.323Z,41.13
2023-04-21T10:05:50.639Z,43.31
2023-04-21T10:08:19.041Z,42.19
2023-04-21T10:10:55.272Z,41.90
2023-04-21T10:13:26.245Z,41.30
2023-04-21T10:16:12.561Z,41.85
2023-04-21T10:18:47.157Z,41.76
2023-04-21T10:21:23.488Z,40.83
2023-04-21T10:24:00.561Z,39.70
2023-04-21T10:26:41.039Z,37.94
2023-04-21T10:30:28.679Z,41.00
2023-04-21T10:33:08.508Z,41.31
2023-04-21T10:36:08.987Z,39.22
2023-04-21T10:38:46.490Z,41.90
2023-04-21T10:41:32.541Z,41.54
2023-04-21T10:44:00.624Z,38.75
2023-04-21T10:46:38.540Z,42.18
2023-04-21T10:49:27.604Z,40.41
2023-04-21T10:52:07.668Z,37.21
2023-04-21T10:54:52.716Z,38.70
2023-04-21T10:57:21.100Z,40.92
2023-04-21T10:59:54.468Z,40.04
2023-04-21T11:02:30.596Z,42.06
2023-04-21T11:04:59.200Z,41.56
2023-04-21T11:07:27.317Z,39.83
2023-04-21T11:10:11.558Z,42.65
2023-04-21T11:12:41.433Z,40.74
2023-04-21T11:15:15.873Z,41.98
2023-04-21T11:17:47.187Z,34.61
2023-04-21T11:20:17.660Z,40.17
2023-04-21T11:22:53.169Z,39.34
2023-04-21T11:25:20.526Z,38.01
2023-04-21T11:27:56.704Z,39.42
2023-04-21T11:30:42.063Z,36.97
2023-04-21T11:33:12.552Z,42.66
2023-04-21T11:35:42.039Z,40.53
2023-04-21T11:38:10.560Z,40.02
2023-04-21T11:40:53.921Z,36.09
2023-04-21T11:43:22.235Z,39.18
2023-04-21T11:45:53.952Z,38.63
2023-04-21T11:48:21.317Z,36.91
2023-04-21T11:50:51.459Z,38.10
2023-04-21T11:53:20.396Z,39.84
2023-04-21T11:56:03.604Z,34.31
2023-04-21T11:58:40.577Z,36.70
2023-04-21T12:01:11.187Z,37.56
2023-04-21T12:04:17.470Z,36.16
2023-04-21T12:06:46.909Z,37.51
2023-04-21T12:09:25.033Z,35.53
2023-04-21T12:11:55.192Z,37.97
2023-04-21T12:14:24.493Z,38.33
2023-04-21T12:16:57.307Z,40.62
2023-04-21T12:19:43.032Z,38.35
2023-04-21T12:22:17.215Z,38.92
2023-04-21T12:24:45.345Z,38.12
2023-04-21T12:27:16.709Z,35.04
2023-04-21T12:29:49.269Z,35.50
2023-04-21T12:32:32.322Z,34.09
2023-04-21T12:35:00.545Z,36.02
2023-04-21T12:37:27.893Z,40.26
2023-04-21T12:39:57.519Z,40.57
2023-04-21T12:42:25.644Z,35.13
2023-04-21T12:45:27.029Z,34.46
2023-04-21T12:48:00.471Z,35.93
2023-04-21T12:50:27.647Z,35.43
2023-04-21T12:52:55.407Z,34.03
2023-04-21T12:55:23.452Z,34.75
2023-04-21T12:57:54.090Z,36.11
2023-04-21T13:00:24.797Z,36.79
2023-04-21T13:02:52.089Z,32.58
2023-04-21T13:05:20.184Z,31.09
2023-04-21T13:07:47.384Z,35.09
2023-04-21T13:10:18.217Z,36.08
2023-04-21T13:12:46.924Z,36.25
2023-04-21T13:15:14.036Z,36.71
2023-04-21T13:17:41.416Z,32.53
2023-04-21T13:20:09.210Z,34.63
2023-04-21T13:22:40.284Z,33.20
2023-04-21T13:25:10.531Z,33.98
2023-04-21T13:27:42.422Z,32.96
2023-04-21T13:30:12.915Z,35.95
2023-04-21T13:32:46.686Z,31.52
2023-04-21T13:35:15.012Z,35.54
2023-04-21T13:37:42.503Z,35.22
2023-04-21T13:40:11.575Z,36.18
2023-04-21T13:42:39.841Z,36.52
2023-04-21T13:45:08.162Z,37.46
2023-04-21T13:47:35.866Z,34.86
2023-04-21T13:50:03.577Z,34.22
2023-04-21T13:52:30.846Z,32.20
2023-04-21T13:54:58.252Z,32.85
2023-04-21T13:57:25.547Z,34.06
2023-04-21T14:00:02.042Z,35.87
2023-04-21T14:02:29.484Z,32.35
2023-04-21T14:04:59.841Z,32.56
2023-04-21T14:07:30.587Z,30.80
2023-04-21T14:09:58.114Z,33.99
2023-04-21T14:12:28.132Z,32.89
2023-04-21T14:14:55.378Z,33.36
2023-04-21T14:17:23.200Z,34.74
2023-04-21T14:19:52.025Z,34.91
2023-04-21T14:22:21.022Z,31.50
2023-04-21T14:24:49.928Z,32.89
2023-04-21T14:27:19.803Z,32.57
2023-04-21T14:29:47.047Z,34.99
2023-04-21T14:32:19.324Z,31.82
2023-04-21T14:34:47.186Z,32.12
2023-04-21T14:37:14.403Z,33.54
2023-04-21T14:39:41.698Z,33.80
2023-04-21T14:42:11.323Z,31.25
2023-04-21T14:44:38.654Z,29.75
2023-04-21T14:47:09.699Z,30.70
2023-04-21T14:49:40.632Z,30.55
2023-04-21T14:52:08.069Z,31.53
2023-04-21T14:54:41.481Z,29.20
2023-04-21T14:57:20.061Z,30.85
2023-04-21T14:59:56.003Z,31.65
2023-04-21T15:02:24.130Z,32.32
2023-04-21T15:04:53.026Z,31.54
2023-04-21T15:07:24.717Z,32.32
2023-04-21T15:09:54.485Z,31.14
2023-04-21T15:12:23.181Z,32.36
2023-04-21T15:14:59.960Z,35.39
2023-04-21T15:17:32.722Z,33.20
2023-04-21T15:20:05.575Z,33.47
2023-04-21T15:22:38.829Z,31.54
2023-04-21T15:25:16.396Z,31.46
2023-04-21T15:27:47.062Z,30.77
2023-04-21T15:30:17.614Z,33.00
2023-04-21T15:32:58.360Z,33.91
2023-04-21T15:35:26.147Z,33.76
2023-04-21T15:38:02.721Z,34.86
2023-04-21T15:40:53.065Z,34.85
2023-04-21T15:43:26.971Z,32.20
2023-04-21T15:46:17.015Z,33.65
2023-04-21T15:48:52.582Z,33.25
2023-04-21T15:51:57.399Z,33.47
2023-04-21T15:54:35.328Z,35.19
2023-04-21T15:57:03.159Z,35.93
2023-04-21T15:59:31.033Z,33.53
2023-04-21T16:01:58.664Z,34.43
2023-04-21T16:04:26.642Z,33.98
2023-04-21T16:06:54.610Z,33.83
2023-04-21T16:09:23.964Z,33.71
2023-04-21T16:11:51.812Z,36.69
2023-04-21T16:14:19.322Z,32.54
2023-04-21T16:16:46.721Z,34.03
2023-04-21T16:19:14.014Z,33.16
2023-04-21T16:21:42.683Z,34.24
2023-04-21T16:24:20.678Z,34.03
2023-04-21T16:26:59.937Z,34.49
2023-04-21T16:29:27.045Z,35.25
2023-04-21T16:31:54.313Z,34.36
2023-04-21T16:34:24.545Z,35.11
2023-04-21T16:36:51.657Z,36.11
2023-04-21T16:39:18.949Z,38.10
2023-04-21T16:41:46.279Z,35.11
2023-04-21T16:44:13.464Z,36.05
2023-04-21T16:46:41.093Z,35.65
2023-04-21T16:49:12.768Z,35.70
2023-04-21T16:51:44.484Z,35.52
2023-04-21T16:54:12.374Z,36.23
2023-04-21T16:56:39.682Z,36.46
2023-04-21T16:59:06.845Z,35.90
2023-04-21T17:01:33.914Z,37.42
2023-04-21T17:04:01.794Z,36.51
2023-04-21T17:06:29.026Z,39.02
2023-04-21T17:08:59.851Z,36.77
2023-04-21T17:11:31.578Z,37.07
2023-04-21T17:13:58.696Z,36.92
2023-04-21T17:16:28.171Z,38.15
2023-04-21T17:18:56.381Z,39.69
2023-04-21T17:21:23.622Z,40.28
2023-04-21T17:23:56.589Z,40.19
2023-04-21T17:26:23.959Z,42.78
2023-04-21T17:28:54.178Z,40.90
2023-04-21T17:31:21.447Z,40.88
2023-04-21T17:33:50.993Z,42.41
2023-04-21T17:36:19.023Z,40.67
2023-04-21T17:38:46.390Z,40.06
2023-04-21T17:41:14.754Z,41.18
2023-04-21T17:43:41.822Z,42.59
2023-04-21T17:46:08.996Z,42.98
2023-04-21T17:48:36.136Z,43.22
2023-04-21T17:51:04.044Z,43.43
2023-04-21T17:53:31.962Z,43.12
2023-04-21T17:55:59.561Z,43.86
2023-04-21T17:58:28.078Z,45.32
2023-04-21T18:00:55.476Z,45.42
2023-04-21T18:03:23.000Z,44.76
2023-04-21T18:05:50.532Z,45.81
2023-04-21T18:08:17.916Z,46.10
2023-04-21T18:10:44.994Z,45.59
2023-04-21T18:13:12.050Z,47.22
2023-04-21T18:15:43.562Z,46.35
2023-04-21T18:18:10.694Z,45.63
2023-04-21T18:20:38.006Z,46.57
2023-04-21T18:23:07.362Z,47.61
2023-04-21T18:25:42.450Z,47.32
2023-04-21T18:28:13.398Z,47.30
2023-04-21T18:30:40.885Z,49.23
2023-04-21T18:33:12.473Z,49.26
2023-04-21T18:35:42.530Z,49.63
2023-04-21T18:38:11.731Z,48.74
2023-04-21T18:40:40.464Z,49.82
2023-04-21T18:43:08.069Z,47.63
2023-04-21T18:45:35.432Z,48.58
2023-04-21T18:48:02.553Z,47.50
2023-04-21T18:50:34.690Z,46.75
2023-04-21T18:53:03.759Z,47.26
2023-04-21T18:55:33.340Z,46.81
2023-04-21T18:58:00.400Z,45.92
2023-04-21T19:00:37.160Z,47.13
2023-04-21T19:03:08.356Z,45.64
2023-04-21T19:05:40.434Z,46.89
2023-04-21T19:08:11.641Z,46.40
2023-04-21T19:10:38.834Z,45.09
2023-04-21T19:13:06.175Z,47.91
2023-04-21T19:15:34.328Z,46.14
2023-04-21T19:18:01.550Z,47.34
2023-04-21T19:20:32.402Z,45.91
2023-04-21T19:22:59.590Z,45.84
2023-04-21T19:25:26.716Z,46.54
2023-04-21T19:27:53.984Z,46.37
2023-04-21T19:30:21.740Z,46.43
2023-04-21T19:32:48.910Z,47.80
2023-04-21T19:35:16.443Z,48.57
2023-04-21T19:37:44.067Z,46.93
2023-04-21T19:40:11.588Z,47.51
2023-04-21T19:42:41.501Z,48.13
2023-04-21T19:45:09.982Z,48.35
2023-04-21T19:47:37.281Z,49.29
2023-04-21T19:50:09.035Z,49.31
2023-04-21T19:52:36.337Z,48.71
2023-04-21T19:55:06.909Z,49.51
2023-04-21T19:57:38.793Z,50.71
2023-04-21T20:00:09.291Z,51.15
2023-04-21T20:02:36.699Z,51.04
2023-04-21T20:05:04.451Z,51.30
2023-04-21T20:07:31.545Z,52.17
2023-04-21T20:10:01.483Z,49.67
2023-04-21T20:12:31.982Z,49.98
2023-04-21T20:14:59.173Z,50.64
2023-04-21T20:17:26.764Z,49.95
2023-04-21T20:19:55.568Z,48.96
2023-04-21T20:22:22.801Z,49.62
2023-04-21T20:24:52.090Z,50.06
2023-04-21T20:27:19.509Z,50.47
2023-04-21T20:29:47.517Z,50.90
2023-04-21T20:32:19.425Z,51.13
2023-04-21T20:34:46.471Z,51.58
2023-04-21T20:37:16.322Z,52.36
2023-04-21T20:39:46.662Z,53.62
2023-04-21T20:42:14.611Z,52.87
2023-04-21T20:44:43.153Z,53.78
2023-04-21T20:47:11.926Z,53.45
2023-04-21T20:49:40.126Z,54.70
2023-04-21T20:52:10.673Z,54.07
2023-04-21T20:54:38.172Z,54.86
2023-04-21T20:57:10.134Z,55.16
2023-04-21T20:59:37.596Z,54.40
2023-04-21T21:02:05.222Z,54.48
2023-04-21T21:04:32.634Z,54.88
2023-04-21T21:07:01.288Z,56.09
2023-04-21T21:09:28.488Z,56.09
2023-04-21T21:11:56.032Z,54.92
2023-04-21T21:14:26.515Z,54.52
2023-04-21T21:16:54.684Z,54.25
2023-04-21T21:19:21.824Z,54.42
2023-04-21T21:21:48.872Z,53.75
2023-04-21T21:24:16.253Z,54.00
2023-04-21T21:26:43.357Z,54.12
2023-04-21T21:29:10.563Z,54.16
2023-04-21T21:31:37.698Z,53.61
2023-04-21T21:34:04.890Z,53.30
2023-04-21T21:36:33.246Z,54.30
2023-04-21T21:39:00.296Z,54.15
2023-04-21T21:41:27.461Z,55.01
2023-04-21T21:43:54.493Z,54.27
2023-04-21T21:46:22.199Z,54.55
2023-04-21T21:48:50.110Z,55.73
2023-04-21T21:51:17.263Z,55.25
2023-04-21T21:53:44.319Z,55.45
2023-04-21T21:56:11.709Z,55.50
2023-04-21T21:58:38.882Z,54.11
2023-04-21T22:01:06.147Z,54.41
2023-04-21T22:03:33.433Z,54.71
2023-04-21T22:06:00.683Z,54.24
2023-04-21T22:08:27.693Z,55.40
2023-04-21T22:10:55.552Z,54.31
2023-04-21T22:13:22.819Z,55.05
2023-04-21T22:15:49.917Z,55.96
2023-04-21T22:18:18.555Z,55.52
2023-04-21T22:20:45.681Z,55.12
2023-04-21T22:23:13.000Z,55.11
2023-04-21T22:25:40.151Z,55.37
2023-04-21T22:28:07.184Z,55.34
2023-04-21T22:30:34.379Z,55.22
2023-04-21T22:33:01.638Z,54.62
2023-04-21T22:35:29.952Z,54.71
2023-04-21T22:37:57.058Z,54.60
2023-04-21T22:40:24.180Z,55.33
2023-04-21T22:42:51.400Z,55.91
2023-04-21T22:45:18.571Z,54.12
2023-04-21T22:47:45.629Z,54.53
2023-04-21T22:50:15.217Z,54.54
2023-04-21T22:52:42.444Z,54.30
2023-04-21T22:55:10.287Z,56.00
2023-04-21T22:57:37.851Z,56.43
2023-04-21T23:00:11.199Z,56.26
2023-04-21T23:02:38.632Z,56.16
2023-04-21T23:05:06.704Z,56.52
2023-04-21T23:07:33.810Z,56.82
2023-04-21T23:10:00.879Z,57.16
2023-04-21T23:12:27.956Z,57.51
2023-04-21T23:14:55.043Z,57.27
2023-04-21T23:17:22.196Z,58.29
2023-04-21T23:19:49.293Z,58.56
2023-04-21T23:22:18.608Z,58.73
2023-04-21T23:24:45.752Z,57.52
2023-04-21T23:27:12.829Z,56.97
2023-04-21T23:29:40.113Z,56.08
2023-04-21T23:32:07.569Z,56.37
2023-04-21T23:34:34.748Z,54.63
2023-04-21T23:37:01.775Z,55.33
2023-04-21T23:39:28.874Z,56.44
2023-04-21T23:41:56.110Z,57.19
2023-04-21T23:44:23.197Z,56.57
2023-04-21T23:46:50.274Z,56.74
2023-04-21T23:49:17.314Z,56.89
2023-04-21T23:51:44.459Z,56.64
2023-04-21T23:54:11.631Z,57.45
2023-04-21T23:56:38.670Z,57.39
2023-04-21T23:59:06.372Z,56.93
